Hovedside
METAR-TAF:

METAR-TAF

Lufthavner :

Hammerfest lufthavn

Hammerfest, Norge

breddegrad: 70-40N, lengdegrad: 023-40E, høyde over havet: 8 m

Gjeldene værobservasjon

Denne rapporten ble laget for 19 minutter siden, klokken 10:20 UTC
Vind 10 kt fra Øst-sørøst, skiftende mellom Øst og Sør-sørøst
Temperatur 16°C
Luftfuktighet 82%
Trykk 998 hPa
Sikt 10 km eller mer
Få skyer i en høyde av 2500 ft
Spredte skyer i en høyde av 4300 ft
lett regn

METAR: ENHF 191020Z 12010KT 090V150 9999 -RA FEW025 SCT043 16/13 Q0998 RMK WIND 1254FT 14024KT

Tid: 12:39 (10:39 UTC)

Varsel

Denne rapporten ble laget for 2 timer og 39 minutter siden, klokken 08:00 UTC
Varsel gyldig fra 19. klokken 09 UTC til 19. klokken 18 UTC
Vind 15 kt fra Sørøst
Sikt 10 km eller mer
Få skyer i en høyde av 1500 ft
Brutte skyer i en høyde av 3000 ft
lett regn
Midlertidig
fra 19. klokken 15 UTC til 19. klokken 18 UTC
Brutte skyer i en høyde av 400 ft
regn,

TAF: ENHF 190800Z 1909/1918 13015KT 9999 -RA FEW015 BKN030 TEMPO 1915/1918 RA BKN004

Værobservasjoner og værvarsel for over 4000 flyplasser (METAR- og TAF-rapporter).

Tilgjengelige stasjoner er representert av de røde og gule prikkene på kartet.

Hold musepekeren over prikken for å se navnet på stasjonen.

Klikk så for å se værobservasjoner og -varsler.

For å forandre kartet kan du klikke på den grønne knappen med svart kryss for å zoome inn, på den grønne knappen med strek for å zoome ut, eller på de grønne pilene for å se tilstøtende kart.


METAR-TAF: